Time;durP1;ratioP1;P1;durP2;ratioP2;P2;SDS_P1;SDS_P2;PMS_P1;PMS_P2;Temp;Humidity;BMP_temperature;BMP_pressure;BME280_temperature;BME280_humidity;BME280_pressure;Samples;Min_cycle;Max_cycle;Signal;HPM_P1;HPM_P2
2023/02/26 00:00:14;;;;;;;2.58;1.00;;;14.10;55.40;;;;;;6276364;22;19999;-73
2023/02/26 00:02:41;;;;;;;3.47;1.60;;;14.10;55.40;;;;;;6276319;22;20018;-73
2023/02/26 00:05:08;;;;;;;2.67;1.10;;;14.00;55.30;;;;;;6276243;22;20362;-74
2023/02/26 00:07:34;;;;;;;2.85;1.38;;;14.10;55.40;;;;;;6276324;22;19992;-73
2023/02/26 00:10:01;;;;;;;2.35;1.10;;;14.00;55.20;;;;;;6276215;22;20000;-72
2023/02/26 00:12:28;;;;;;;1.75;1.25;;;14.10;55.90;;;;;;6276057;22;19992;-73
2023/02/26 00:14:55;;;;;;;3.22;1.17;;;14.10;55.20;;;;;;6276205;22;20019;-73
2023/02/26 00:17:27;;;;;;;2.10;1.05;;;14.10;55.20;;;;;;6275934;22;19995;-74
2023/02/26 00:19:53;;;;;;;2.55;1.05;;;14.00;55.20;;;;;;6275772;22;20000;-74
2023/02/26 00:22:20;;;;;;;1.20;0.90;;;14.10;55.30;;;;;;6276130;22;20373;-72
2023/02/26 00:24:46;;;;;;;2.33;0.90;;;14.10;55.30;;;;;;6276079;22;20015;-73
2023/02/26 00:27:12;;;;;;;1.25;0.77;;;14.10;55.30;;;;;;6275617;22;20010;-73
2023/02/26 00:29:39;;;;;;;2.80;1.10;;;14.10;55.20;;;;;;6276159;22;19996;-73
2023/02/26 00:32:06;;;;;;;1.35;0.88;;;14.10;55.20;;;;;;6276249;22;20000;-73
2023/02/26 00:34:33;;;;;;;0.50;0.50;;;14.10;55.40;;;;;;6276260;22;20002;-73
2023/02/26 00:37:08;;;;;;;1.92;0.80;;;14.10;55.30;;;;;;6275809;22;19992;-72
2023/02/26 00:39:39;;;;;;;2.13;1.02;;;14.10;55.40;;;;;;6276104;22;20495;-73
2023/02/26 00:42:05;;;;;;;1.27;0.90;;;14.10;55.40;;;;;;6276134;22;20011;-74
2023/02/26 00:44:32;;;;;;;2.50;1.33;;;14.10;55.40;;;;;;6276227;22;20078;-73
2023/02/26 00:47:40;;;;;;;0.90;0.68;;;14.10;55.40;;;;;;6276192;22;19995;-74
2023/02/26 00:50:20;;;;;;;2.08;1.23;;;14.00;55.40;;;;;;6221966;22;20000;-73
2023/02/26 00:52:55;;;;;;;2.70;1.35;;;14.10;55.50;;;;;;6249168;22;20023;-74
2023/02/26 00:55:21;;;;;;;2.10;1.08;;;14.00;55.40;;;;;;6275931;22;20004;-73
2023/02/26 00:57:47;;;;;;;2.35;1.55;;;14.10;55.50;;;;;;6275535;22;20002;-73
2023/02/26 01:00:14;;;;;;;2.22;0.80;;;14.00;55.40;;;;;;6275495;22;19996;-73
2023/02/26 01:02:41;;;;;;;1.40;0.75;;;14.10;55.50;;;;;;6275379;22;19992;-73
2023/02/26 01:05:08;;;;;;;1.20;0.70;;;14.00;55.50;;;;;;6275783;22;20018;-72
2023/02/26 01:07:58;;;;;;;2.03;1.15;;;14.00;55.40;;;;;;6275399;22;20015;-72
2023/02/26 01:10:24;;;;;;;3.08;1.13;;;14.00;55.50;;;;;;6276014;22;20000;-72
2023/02/26 01:12:51;;;;;;;1.73;1.00;;;14.10;55.40;;;;;;6275808;22;20007;-72
2023/02/26 01:15:17;;;;;;;1.90;0.90;;;14.00;55.50;;;;;;6275827;22;20022;-72
2023/02/26 01:18:02;;;;;;;1.30;1.17;;;14.00;55.40;;;;;;6275724;22;19996;-74
2023/02/26 01:20:34;;;;;;;1.40;0.80;;;14.10;55.60;;;;;;6275847;22;19996;-73
2023/02/26 01:23:08;;;;;;;2.03;1.00;;;14.00;55.50;;;;;;6275060;22;20423;-73
2023/02/26 01:25:42;;;;;;;1.70;0.88;;;14.00;55.60;;;;;;6274822;22;20012;-73
2023/02/26 01:28:08;;;;;;;3.55;1.23;;;14.00;55.50;;;;;;6275340;22;20067;-73
2023/02/26 01:30:35;;;;;;;1.20;0.70;;;14.00;55.50;;;;;;6275690;22;20000;-74
2023/02/26 01:33:07;;;;;;;2.88;0.93;;;14.00;55.60;;;;;;6275533;22;19996;-73
2023/02/26 01:35:47;;;;;;;1.70;0.93;;;14.00;55.60;;;;;;6275485;22;20379;-74
2023/02/26 01:38:33;;;;;;;1.42;1.05;;;14.00;55.50;;;;;;6275540;22;20003;-73
2023/02/26 01:41:20;;;;;;;0.85;0.65;;;14.00;55.50;;;;;;6285593;22;20000;-73
2023/02/26 01:43:49;;;;;;;1.70;0.88;;;14.00;55.60;;;;;;6285498;22;20007;-73
2023/02/26 01:46:22;;;;;;;1.52;0.75;;;14.00;55.60;;;;;;6285371;22;20083;-73
2023/02/26 01:48:53;;;;;;;0.90;0.70;;;14.00;55.60;;;;;;6259601;22;20070;-73
2023/02/26 01:51:41;;;;;;;1.40;0.80;;;14.00;55.60;;;;;;6285467;22;20375;-73
2023/02/26 01:54:07;;;;;;;0.95;0.70;;;14.00;55.60;;;;;;6247978;22;19996;-73
2023/02/26 01:56:33;;;;;;;1.98;0.70;;;14.00;55.70;;;;;;6285347;22;19996;-73
2023/02/26 01:58:59;;;;;;;1.45;1.00;;;14.00;55.70;;;;;;6285403;22;20370;-74
2023/02/26 02:01:25;;;;;;;1.02;0.60;;;14.00;55.70;;;;;;6274991;22;20026;-73
2023/02/26 02:03:51;;;;;;;1.55;0.68;;;14.00;55.70;;;;;;6285476;22;20331;-74
2023/02/26 02:06:21;;;;;;;2.55;1.00;;;14.00;55.70;;;;;;6285429;22;20010;-73
2023/02/26 02:08:47;;;;;;;1.45;0.82;;;14.00;55.70;;;;;;6285462;22;20331;-73
2023/02/26 02:11:14;;;;;;;2.55;0.70;;;14.00;55.80;;;;;;6285341;22;20126;-73
2023/02/26 02:13:48;;;;;;;1.98;0.80;;;14.00;55.80;;;;;;6285325;22;19992;-73
2023/02/26 02:16:26;;;;;;;2.15;0.88;;;14.00;55.80;;;;;;6285376;22;19996;-74
2023/02/26 02:18:53;;;;;;;1.27;0.70;;;14.00;55.80;;;;;;6285338;22;19997;-73
2023/02/26 02:21:48;;;;;;;1.75;0.68;;;14.00;55.80;;;;;;6285282;22;19995;-73
2023/02/26 02:24:27;;;;;;;1.02;0.65;;;13.90;55.70;;;;;;6285330;22;19996;-73
2023/02/26 02:27:32;;;;;;;1.00;0.55;;;13.90;55.70;;;;;;6264793;22;20184;-73
2023/02/26 02:30:08;;;;;;;0.93;0.60;;;13.90;55.70;;;;;;6254617;22;20398;-73
2023/02/26 02:32:44;;;;;;;1.15;0.70;;;13.90;55.80;;;;;;6244794;22;20000;-73
2023/02/26 02:35:25;;;;;;;1.00;0.80;;;13.90;55.70;;;;;;6255386;22;19992;-73
2023/02/26 02:38:04;;;;;;;1.42;0.60;;;13.90;55.80;;;;;;6246658;22;20360;-73
2023/02/26 02:40:34;;;;;;;2.22;0.80;;;13.90;55.80;;;;;;6256476;22;19996;-73
2023/02/26 02:43:14;;;;;;;1.00;0.60;;;13.90;55.80;;;;;;6256548;22;20322;-72
2023/02/26 02:46:04;;;;;;;0.98;0.55;;;13.90;55.80;;;;;;6256463;22;20004;-72
2023/02/26 02:48:41;;;;;;;0.52;0.50;;;13.90;55.80;;;;;;6256529;22;19996;-72
2023/02/26 02:51:21;;;;;;;2.28;0.73;;;13.90;55.80;;;;;;6256510;22;20004;-74
2023/02/26 02:53:55;;;;;;;1.10;0.60;;;13.90;55.80;;;;;;6256415;22;19999;-74
2023/02/26 02:56:31;;;;;;;1.55;0.80;;;13.90;55.80;;;;;;6256274;22;20238;-73
2023/02/26 02:59:05;;;;;;;1.45;0.68;;;13.90;55.80;;;;;;6256295;22;19998;-74
2023/02/26 03:01:34;;;;;;;1.25;0.90;;;13.90;55.90;;;;;;6256276;22;20007;-74
2023/02/26 03:04:07;;;;;;;0.90;0.38;;;13.90;55.80;;;;;;6256334;22;20071;-74
2023/02/26 03:06:34;;;;;;;1.15;0.57;;;13.80;55.70;;;;;;6256232;22;20058;-74
2023/02/26 03:09:02;;;;;;;1.85;0.75;;;13.90;55.80;;;;;;6256169;22;20024;-74
2023/02/26 03:11:28;;;;;;;1.75;0.73;;;13.90;55.80;;;;;;6256196;22;20003;-74
2023/02/26 03:13:54;;;;;;;1.40;0.60;;;13.90;55.80;;;;;;6256186;22;19997;-74
2023/02/26 03:16:42;;;;;;;0.82;0.70;;;13.80;55.70;;;;;;6246232;22;20053;-74
2023/02/26 03:19:28;;;;;;;0.80;0.70;;;13.80;55.70;;;;;;6246278;22;20374;-74
2023/02/26 03:22:26;;;;;;;0.80;0.50;;;13.90;55.80;;;;;;6246348;22;19997;-74
2023/02/26 03:25:14;;;;;;;1.48;0.90;;;13.90;55.80;;;;;;6211355;22;20008;-74
2023/02/26 03:27:40;;;;;;;1.80;0.73;;;13.90;55.80;;;;;;6275899;22;20082;-74
2023/02/26 03:30:10;;;;;;;0.98;0.77;;;13.80;55.80;;;;;;6276612;22;20065;-74
2023/02/26 03:32:49;;;;;;;1.67;0.50;;;13.80;55.70;;;;;;6276598;22;20003;-74
2023/02/26 03:35:46;;;;;;;2.42;0.80;;;13.80;55.80;;;;;;6276339;22;20430;-74
2023/02/26 03:38:29;;;;;;;0.90;0.52;;;13.80;55.70;;;;;;6276771;22;20002;-74
2023/02/26 03:41:07;;;;;;;1.58;0.60;;;13.80;55.70;;;;;;6276656;22;20003;-74
2023/02/26 03:43:42;;;;;;;1.05;0.60;;;13.80;55.70;;;;;;6276551;22;20026;-74
2023/02/26 03:46:18;;;;;;;2.20;0.68;;;13.80;55.70;;;;;;6276134;22;20011;-74
2023/02/26 03:48:47;;;;;;;1.05;0.63;;;13.80;55.70;;;;;;6276638;22;20462;-74
2023/02/26 03:51:13;;;;;;;2.08;0.50;;;13.80;55.70;;;;;;6276470;22;19999;-74
2023/02/26 03:53:56;;;;;;;1.27;0.40;;;13.80;56.30;;;;;;6276121;22;20450;-74
2023/02/26 03:56:31;;;;;;;1.60;0.65;;;13.70;55.60;;;;;;6276610;22;20074;-74
2023/02/26 03:58:57;;;;;;;1.58;0.57;;;13.80;55.70;;;;;;6276649;22;19996;-74
2023/02/26 04:01:52;;;;;;;1.80;0.68;;;13.70;55.60;;;;;;6276267;22;19995;-74
2023/02/26 04:04:52;;;;;;;1.40;0.60;;;13.70;55.70;;;;;;6271926;22;19996;-74
2023/02/26 04:07:19;;;;;;;0.90;0.60;;;13.70;55.60;;;;;;6276009;22;20371;-73
2023/02/26 04:09:49;;;;;;;1.17;0.63;;;13.70;55.60;;;;;;6276344;22;20010;-74
2023/02/26 04:12:20;;;;;;;1.25;0.55;;;13.70;55.60;;;;;;6276019;22;19996;-74
2023/02/26 04:14:46;;;;;;;0.80;0.50;;;13.70;55.60;;;;;;6276460;22;20008;-74
2023/02/26 04:17:12;;;;;;;0.85;0.60;;;13.70;55.60;;;;;;6276359;22;19992;-74
2023/02/26 04:19:38;;;;;;;2.20;0.50;;;13.70;55.70;;;;;;6276222;22;19996;-74
2023/02/26 04:22:04;;;;;;;1.35;0.60;;;13.70;55.70;;;;;;6276171;22;19999;-74
2023/02/26 04:24:30;;;;;;;2.13;0.50;;;13.70;55.70;;;;;;6276065;22;19999;-74
2023/02/26 04:26:56;;;;;;;0.82;0.60;;;13.70;55.60;;;;;;6275732;22;20099;-74
2023/02/26 04:29:22;;;;;;;1.25;0.60;;;13.60;55.60;;;;;;6276107;22;20000;-74
2023/02/26 04:31:48;;;;;;;1.48;0.55;;;13.70;55.70;;;;;;6276131;22;19996;-74
2023/02/26 04:34:14;;;;;;;1.35;0.55;;;13.60;55.60;;;;;;6275868;22;19999;-74
2023/02/26 04:36:40;;;;;;;3.38;0.57;;;13.70;55.70;;;;;;6276094;22;19999;-74
2023/02/26 04:39:09;;;;;;;1.10;0.43;;;13.60;55.60;;;;;;6275759;22;20077;-74
2023/02/26 04:41:36;;;;;;;0.80;0.50;;;13.60;55.60;;;;;;6276059;22;19999;-73
2023/02/26 04:44:03;;;;;;;1.10;0.50;;;13.60;55.60;;;;;;6276093;22;19996;-75
2023/02/26 04:46:29;;;;;;;1.58;0.40;;;13.60;55.50;;;;;;6275865;22;20018;-74
2023/02/26 04:48:55;;;;;;;2.47;0.55;;;13.60;55.50;;;;;;6286046;22;20016;-75
2023/02/26 04:51:21;;;;;;;1.17;0.60;;;13.60;55.60;;;;;;6285996;22;20045;-74
2023/02/26 04:53:46;;;;;;;1.05;0.52;;;13.60;55.60;;;;;;6285951;22;19991;-74
2023/02/26 04:56:12;;;;;;;1.75;0.50;;;13.60;55.60;;;;;;6285788;22;19996;-74
2023/02/26 04:58:38;;;;;;;1.10;0.43;;;13.60;55.60;;;;;;6285323;22;19996;-74
2023/02/26 05:01:04;;;;;;;1.83;0.70;;;13.80;64.60;;;;;;6285630;22;19996;-74
2023/02/26 05:03:30;;;;;;;1.92;0.40;;;13.60;55.60;;;;;;6285689;22;19991;-73
2023/02/26 05:05:56;;;;;;;0.80;0.47;;;13.60;55.60;;;;;;6285631;22;20091;-74
2023/02/26 05:08:21;;;;;;;0.63;0.57;;;13.60;55.60;;;;;;6285783;22;20023;-74
2023/02/26 05:10:48;;;;;;;0.90;0.40;;;13.50;55.60;;;;;;6285807;22;20009;-74
2023/02/26 05:13:13;;;;;;;0.77;0.30;;;13.50;55.50;;;;;;6275729;22;20076;-74
2023/02/26 05:15:39;;;;;;;0.95;0.43;;;13.50;55.60;;;;;;6285578;22;20034;-74
2023/02/26 05:18:04;;;;;;;1.08;0.35;;;13.50;55.60;;;;;;6285494;22;20038;-74
2023/02/26 05:20:30;;;;;;;0.60;0.40;;;13.50;55.60;;;;;;6285572;22;20006;-74
2023/02/26 05:22:56;;;;;;;2.55;0.50;;;13.50;55.50;;;;;;6285610;22;20003;-74
2023/02/26 05:25:21;;;;;;;1.27;0.55;;;13.50;55.50;;;;;;6247895;22;20008;-74
2023/02/26 05:27:47;;;;;;;1.65;0.50;;;13.50;55.50;;;;;;6285986;22;19998;-74
2023/02/26 05:30:14;;;;;;;1.65;0.57;;;13.50;55.60;;;;;;6285825;22;19996;-79
2023/02/26 05:32:40;;;;;;;0.90;0.50;;;13.50;55.60;;;;;;6285896;22;19992;-77
2023/02/26 05:35:06;;;;;;;0.50;0.40;;;13.50;55.60;;;;;;6285864;22;20003;-78
2023/02/26 05:37:32;;;;;;;0.93;0.30;;;13.50;55.60;;;;;;6275821;22;19992;-78
2023/02/26 05:39:58;;;;;;;1.05;0.47;;;13.50;55.70;;;;;;6286059;22;20085;-79
2023/02/26 05:42:23;;;;;;;0.85;0.38;;;13.50;55.70;;;;;;6285686;22;19992;-78
2023/02/26 05:44:49;;;;;;;1.23;0.50;;;13.50;55.70;;;;;;6285586;22;20008;-78
2023/02/26 05:47:16;;;;;;;2.00;0.40;;;13.50;55.70;;;;;;6285761;22;19996;-79
2023/02/26 05:49:41;;;;;;;0.70;0.50;;;13.40;55.70;;;;;;6275718;22;20323;-79
2023/02/26 05:52:07;;;;;;;0.85;0.50;;;13.40;55.70;;;;;;6285557;22;19998;-79
2023/02/26 05:54:33;;;;;;;0.60;0.40;;;13.40;55.70;;;;;;6285723;22;20431;-79
2023/02/26 05:56:59;;;;;;;0.98;0.40;;;13.40;55.70;;;;;;6285653;22;20425;-79
2023/02/26 05:59:24;;;;;;;1.20;0.40;;;13.40;55.80;;;;;;6275695;22;20105;-79
2023/02/26 06:01:50;;;;;;;0.95;0.40;;;13.40;55.90;;;;;;6285456;22;19996;-79
2023/02/26 06:04:16;;;;;;;0.50;0.30;;;13.40;56.00;;;;;;6285496;22;20331;-79
2023/02/26 06:06:41;;;;;;;1.08;0.30;;;13.40;55.90;;;;;;6285609;22;20050;-79
2023/02/26 06:09:07;;;;;;;0.68;0.45;;;13.40;56.50;;;;;;6285447;22;19996;-79
2023/02/26 06:11:33;;;;;;;0.20;0.20;;;13.40;55.80;;;;;;6277160;22;20000;-79
2023/02/26 06:13:59;;;;;;;0.35;0.20;;;13.40;55.80;;;;;;6287587;22;20087;-79
2023/02/26 06:16:25;;;;;;;0.65;0.47;;;13.40;55.80;;;;;;6277709;22;20023;-79
2023/02/26 06:18:50;;;;;;;1.65;0.47;;;13.40;55.80;;;;;;6287541;22;19999;-77
2023/02/26 06:21:17;;;;;;;0.60;0.45;;;13.40;55.80;;;;;;6287460;22;20004;-78
2023/02/26 06:23:43;;;;;;;1.35;0.50;;;13.40;55.80;;;;;;6287596;22;20015;-74
2023/02/26 06:26:08;;;;;;;0.98;0.40;;;13.30;55.80;;;;;;6287069;22;20038;-78
2023/02/26 06:28:34;;;;;;;0.95;0.60;;;13.30;55.80;;;;;;6287550;22;19996;-78
2023/02/26 06:31:00;;;;;;;1.52;0.50;;;13.40;55.80;;;;;;6287404;22;20008;-79
2023/02/26 06:33:25;;;;;;;0.40;0.30;;;13.30;55.80;;;;;;6287542;22;20422;-78
2023/02/26 06:35:51;;;;;;;1.30;0.60;;;13.30;55.80;;;;;;6287306;22;19996;-79
2023/02/26 06:38:17;;;;;;;1.55;0.50;;;13.30;55.80;;;;;;6287265;22;19996;-79
2023/02/26 06:40:44;;;;;;;1.23;0.47;;;13.30;55.80;;;;;;6287291;22;19995;-79
2023/02/26 06:43:10;;;;;;;0.85;0.28;;;13.30;56.50;;;;;;6287270;22;20000;-79
2023/02/26 06:45:36;;;;;;;1.02;0.30;;;13.30;55.90;;;;;;6287281;22;20187;-79
2023/02/26 06:48:01;;;;;;;0.40;0.40;;;13.30;55.90;;;;;;6287225;22;19991;-79
2023/02/26 06:50:27;;;;;;;1.67;0.50;;;13.30;55.90;;;;;;6287183;22;20026;-79
2023/02/26 06:52:53;;;;;;;0.30;0.22;;;13.30;55.90;;;;;;6287215;22;20041;-78
2023/02/26 06:55:20;;;;;;;0.30;0.20;;;13.30;55.90;;;;;;6287072;22;20027;-80
2023/02/26 06:57:46;;;;;;;0.60;0.30;;;13.20;55.90;;;;;;6277116;22;20437;-78
2023/02/26 07:00:12;;;;;;;0.63;0.40;;;13.30;55.90;;;;;;6287097;22;20003;-79
2023/02/26 07:02:38;;;;;;;0.45;0.40;;;13.20;55.80;;;;;;6276510;22;19996;-75
2023/02/26 07:05:04;;;;;;;0.77;0.43;;;13.30;55.90;;;;;;6286839;22;20031;-74
2023/02/26 07:07:30;;;;;;;0.82;0.30;;;13.30;55.80;;;;;;6286755;22;20021;-72
2023/02/26 07:09:55;;;;;;;0.65;0.43;;;13.20;55.80;;;;;;6286837;22;20331;-74
2023/02/26 07:12:21;;;;;;;0.68;0.22;;;13.30;55.80;;;;;;6286791;22;19996;-72
2023/02/26 07:14:47;;;;;;;1.98;0.30;;;13.30;55.80;;;;;;6286771;22;19995;-74
2023/02/26 07:17:19;;;;;;;1.05;0.40;;;13.20;55.70;;;;;;6286679;22;20002;-74
2023/02/26 07:19:48;;;;;;;0.75;0.25;;;13.20;55.70;;;;;;6276941;22;19996;-74
2023/02/26 07:22:15;;;;;;;0.43;0.30;;;13.30;56.40;;;;;;6286280;22;20403;-74
2023/02/26 07:24:41;;;;;;;2.17;0.73;;;13.30;56.40;;;;;;6286580;22;20373;-74
2023/02/26 07:27:08;;;;;;;0.95;0.22;;;13.20;55.70;;;;;;6286343;22;20011;-74
2023/02/26 07:29:33;;;;;;;1.33;0.30;;;13.20;55.60;;;;;;6286590;22;20090;-74
2023/02/26 07:31:59;;;;;;;0.70;0.30;;;13.20;55.70;;;;;;6286533;22;20431;-74
2023/02/26 07:34:24;;;;;;;1.77;0.40;;;13.20;55.60;;;;;;6286534;22;19996;-74
2023/02/26 07:36:50;;;;;;;0.68;0.68;;;13.20;55.70;;;;;;6286622;22;20430;-74
2023/02/26 07:39:16;;;;;;;0.50;0.40;;;13.20;55.60;;;;;;6286511;22;20050;-75
2023/02/26 07:41:41;;;;;;;1.70;0.50;;;13.20;55.70;;;;;;6286411;22;19996;-74
2023/02/26 07:44:07;;;;;;;0.30;0.22;;;13.20;55.70;;;;;;6286471;22;20356;-74
2023/02/26 07:46:33;;;;;;;1.42;0.30;;;13.20;55.70;;;;;;6286271;22;20004;-74
2023/02/26 07:48:58;;;;;;;0.38;0.28;;;13.20;55.80;;;;;;6286424;22;20006;-74
2023/02/26 07:51:24;;;;;;;0.50;0.25;;;13.20;56.40;;;;;;6286353;22;19999;-73
2023/02/26 07:53:49;;;;;;;1.23;0.30;;;13.20;55.70;;;;;;6286299;22;20073;-74
2023/02/26 07:56:15;;;;;;;0.65;0.45;;;13.20;55.80;;;;;;6286370;22;20542;-74
2023/02/26 07:58:41;;;;;;;0.85;0.35;;;13.20;55.70;;;;;;6276354;22;19995;-72
2023/02/26 08:01:07;;;;;;;1.23;0.50;;;13.20;64.90;;;;;;6275753;22;19996;-74
2023/02/26 08:03:33;;;;;;;1.63;0.50;;;13.20;55.80;;;;;;6275874;22;20475;-74
2023/02/26 08:05:59;;;;;;;1.05;0.40;;;13.20;55.80;;;;;;6275879;22;20004;-75
2023/02/26 08:08:26;;;;;;;0.90;0.30;;;13.10;55.70;;;;;;6276167;22;20007;-71
2023/02/26 08:10:52;;;;;;;0.60;0.32;;;13.10;55.60;;;;;;6286279;22;20008;-73
2023/02/26 08:13:18;;;;;;;0.73;0.30;;;13.20;56.40;;;;;;6286191;22;20416;-75
2023/02/26 08:15:43;;;;;;;0.50;0.30;;;13.20;55.70;;;;;;6248808;22;20503;-75
2023/02/26 08:18:10;;;;;;;0.63;0.30;;;13.10;55.80;;;;;;6286039;22;20070;-74
2023/02/26 08:20:36;;;;;;;0.30;0.20;;;13.10;56.40;;;;;;6286284;22;19999;-72
2023/02/26 08:23:01;;;;;;;0.80;0.35;;;13.10;55.80;;;;;;6286056;22;19996;-75
2023/02/26 08:25:27;;;;;;;1.88;0.30;;;13.10;55.90;;;;;;6285660;22;20015;-76
2023/02/26 08:27:53;;;;;;;0.40;0.20;;;13.10;56.00;;;;;;6285968;22;19996;-72
2023/02/26 08:30:18;;;;;;;2.13;0.30;;;13.10;56.00;;;;;;6276075;22;20002;-72
2023/02/26 08:32:44;;;;;;;0.75;0.68;;;13.10;56.10;;;;;;6285955;22;20299;-74
2023/02/26 08:35:10;;;;;;;1.67;0.40;;;13.10;56.20;;;;;;6285961;22;20000;-71
2023/02/26 08:37:37;;;;;;;0.98;0.30;;;13.10;56.80;;;;;;6275902;22;20007;-72
2023/02/26 08:40:09;;;;;;;0.73;0.25;;;13.10;56.80;;;;;;6275750;22;19996;-76
2023/02/26 08:42:35;;;;;;;3.45;0.40;;;13.10;56.20;;;;;;6276028;22;20319;-75
2023/02/26 08:45:02;;;;;;;3.40;0.50;;;13.10;56.20;;;;;;6275514;22;20004;-74
2023/02/26 08:47:28;;;;;;;1.63;0.43;;;13.10;56.40;;;;;;6275979;22;19996;-76
2023/02/26 08:49:54;;;;;;;0.70;0.28;;;13.10;56.40;;;;;;6275947;22;20016;-76
2023/02/26 08:52:20;;;;;;;2.20;0.47;;;13.00;56.30;;;;;;6275616;22;20038;-76
2023/02/26 08:54:46;;;;;;;0.30;0.30;;;13.10;56.60;;;;;;6275488;22;19999;-76
2023/02/26 08:57:12;;;;;;;1.17;0.50;;;13.10;56.50;;;;;;6275986;22;19999;-76
2023/02/26 08:59:38;;;;;;;1.52;0.40;;;13.10;56.40;;;;;;6275569;22;20126;-76
2023/02/26 09:02:05;;;;;;;1.55;0.40;;;13.00;56.50;;;;;;6275811;22;19992;-76
2023/02/26 09:04:31;;;;;;;2.67;0.30;;;13.10;56.40;;;;;;6275380;22;20466;-76
2023/02/26 09:06:57;;;;;;;1.05;0.45;;;13.10;56.60;;;;;;6275730;22;20308;-76
2023/02/26 09:09:23;;;;;;;2.45;0.40;;;13.10;56.60;;;;;;6275924;22;20006;-81
2023/02/26 09:11:49;;;;;;;1.83;0.50;;;13.10;56.60;;;;;;6275804;22;20275;-81
2023/02/26 09:14:15;;;;;;;2.72;0.38;;;13.20;56.50;;;;;;6275389;22;20002;-80
2023/02/26 09:16:41;;;;;;;2.05;0.50;;;13.20;56.70;;;;;;6275764;22;20328;-81
2023/02/26 09:19:07;;;;;;;2.00;0.50;;;13.20;56.70;;;;;;6275718;22;19996;-81
2023/02/26 09:21:34;;;;;;;1.40;0.40;;;13.20;56.30;;;;;;6275755;22;19996;-81
2023/02/26 09:24:00;;;;;;;1.65;0.55;;;13.20;56.20;;;;;;6275260;22;19996;-81
2023/02/26 09:26:26;;;;;;;2.80;0.45;;;13.30;56.10;;;;;;6275021;22;20012;-81
2023/02/26 09:28:52;;;;;;;2.70;0.32;;;13.30;56.20;;;;;;6275747;22;20063;-79
2023/02/26 09:31:18;;;;;;;2.80;0.60;;;13.30;56.20;;;;;;6275690;22;20015;-81
2023/02/26 09:33:44;;;;;;;1.10;0.40;;;13.40;56.30;;;;;;6275667;22;20000;-79
2023/02/26 09:36:10;;;;;;;1.20;0.50;;;13.40;56.20;;;;;;6275288;22;20324;-81
2023/02/26 09:38:36;;;;;;;0.98;0.60;;;13.50;56.00;;;;;;6285521;22;20010;-81
2023/02/26 09:41:08;;;;;;;1.83;0.70;;;13.50;56.70;;;;;;6275234;22;20428;-81
2023/02/26 09:43:47;;;;;;;0.60;0.35;;;13.50;56.00;;;;;;6275213;22;20423;-81
2023/02/26 09:46:40;;;;;;;1.63;0.55;;;13.60;56.10;;;;;;6277329;22;20015;-79
2023/02/26 09:49:21;;;;;;;1.15;0.43;;;13.60;56.10;;;;;;6277724;22;20014;-81
2023/02/26 09:51:52;;;;;;;1.65;0.55;;;13.60;55.70;;;;;;6277251;22;20434;-81
2023/02/26 09:54:23;;;;;;;0.93;0.30;;;13.70;55.70;;;;;;6277725;22;19996;-79
2023/02/26 09:56:51;;;;;;;2.63;0.45;;;13.70;56.30;;;;;;6277443;22;19996;-79
2023/02/26 09:59:18;;;;;;;1.17;0.43;;;13.80;55.90;;;;;;6277103;22;19999;-81
2023/02/26 10:01:59;;;;;;;1.17;0.52;;;13.80;55.80;;;;;;6277171;22;20533;-79
2023/02/26 10:04:47;;;;;;;0.82;0.50;;;13.80;55.70;;;;;;6277298;22;20427;-80
2023/02/26 10:07:31;;;;;;;1.90;0.50;;;13.90;55.40;;;;;;6277250;22;20004;-79
2023/02/26 10:10:03;;;;;;;1.50;0.40;;;13.90;55.30;;;;;;6277263;22;20000;-80
2023/02/26 10:12:34;;;;;;;1.48;0.43;;;14.00;55.40;;;;;;6277624;22;19995;-80
2023/02/26 10:15:04;;;;;;;1.58;0.50;;;14.00;55.40;;;;;;6277197;22;20439;-81
2023/02/26 10:17:39;;;;;;;2.35;0.45;;;14.10;55.50;;;;;;6277230;22;20439;-79
2023/02/26 10:20:19;;;;;;;1.48;0.40;;;14.10;55.60;;;;;;6287614;22;20327;-82
2023/02/26 10:22:58;;;;;;;2.17;0.43;;;14.10;55.40;;;;;;6287800;22;20026;-84
2023/02/26 10:25:30;;;;;;;0.90;0.40;;;14.20;55.30;;;;;;6288998;22;20014;-80
2023/02/26 10:28:33;;;;;;;4.18;1.08;;;14.30;55.40;;;;;;6292341;22;20007;-80
2023/02/26 10:31:08;;;;;;;1.42;0.40;;;14.30;55.30;;;;;;6273078;22;20000;-80
2023/02/26 10:33:42;;;;;;;2.28;0.20;;;14.30;55.30;;;;;;6277630;22;20409;-80
2023/02/26 10:36:18;;;;;;;1.58;0.40;;;14.40;55.00;;;;;;6277045;22;20023;-80
2023/02/26 10:38:48;;;;;;;2.80;0.45;;;14.40;55.00;;;;;;6277123;22;20464;-80
2023/02/26 10:41:17;;;;;;;2.40;0.32;;;14.40;55.10;;;;;;6287658;22;20112;-80
2023/02/26 10:43:56;;;;;;;2.60;0.53;;;14.50;55.10;;;;;;6277359;22;19999;-80
2023/02/26 10:46:46;;;;;;;1.30;0.60;;;14.50;54.90;;;;;;6277252;22;20258;-80
2023/02/26 10:49:41;;;;;;;1.52;0.70;;;14.50;55.00;;;;;;6277258;22;20026;-81
2023/02/26 10:52:20;;;;;;;1.88;0.38;;;14.60;54.80;;;;;;6287059;22;20010;-81
2023/02/26 10:55:21;;;;;;;1.20;0.40;;;14.60;54.70;;;;;;6277271;22;20358;-81
2023/02/26 10:58:13;;;;;;;0.65;0.40;;;14.70;54.80;;;;;;6287090;22;20003;-81
2023/02/26 11:00:42;;;;;;;1.25;0.40;;;14.80;54.60;;;;;;6287232;22;20034;-80
2023/02/26 11:03:16;;;;;;;0.95;0.40;;;14.80;54.50;;;;;;6287016;22;19999;-80
2023/02/26 11:05:41;;;;;;;2.33;0.60;;;14.80;54.20;;;;;;6287064;22;20011;-82
2023/02/26 11:08:27;;;;;;;1.70;0.35;;;14.90;54.50;;;;;;6287037;22;19996;-82
2023/02/26 11:10:59;;;;;;;1.77;0.47;;;14.90;54.20;;;;;;6287163;22;19992;-76
2023/02/26 11:13:27;;;;;;;2.67;0.50;;;15.00;54.90;;;;;;6286959;22;20002;-80
2023/02/26 11:15:55;;;;;;;0.88;0.50;;;15.00;54.10;;;;;;6234813;22;20003;-79
2023/02/26 11:18:38;;;;;;;1.98;1.08;;;15.10;54.20;;;;;;6234804;22;20007;-80
2023/02/26 11:21:06;;;;;;;1.80;1.70;;;15.10;54.10;;;;;;6259832;22;20012;-80
2023/02/26 11:23:33;;;;;;;1.83;1.67;;;15.20;54.50;;;;;;6276775;22;20000;-79
2023/02/26 11:26:05;;;;;;;3.35;2.55;;;15.30;54.30;;;;;;6276395;22;20045;-81
2023/02/26 11:28:42;;;;;;;3.50;3.30;;;15.30;53.90;;;;;;6286827;22;20007;-81
2023/02/26 11:31:11;;;;;;;4.72;4.43;;;15.40;53.70;;;;;;6276395;22;20435;-83
2023/02/26 11:33:42;;;;;;;6.65;6.05;;;15.40;53.70;;;;;;6276383;22;19992;-83
2023/02/26 11:36:14;;;;;;;8.75;8.05;;;15.40;53.70;;;;;;6286720;22;20308;-84
2023/02/26 11:38:45;;;;;;;10.82;10.00;;;15.50;53.40;;;;;;6287033;22;19992;-84
2023/02/26 11:41:12;;;;;;;12.50;11.55;;;15.60;53.70;;;;;;6276746;22;20331;-84
2023/02/26 11:43:42;;;;;;;14.38;13.15;;;15.60;53.70;;;;;;6276630;22;20387;-84
2023/02/26 11:46:09;;;;;;;16.17;15.07;;;15.70;53.50;;;;;;6275951;22;20066;-84
2023/02/26 11:48:42;;;;;;;17.30;16.10;;;15.70;53.60;;;;;;6276885;22;20023;-85
2023/02/26 11:51:13;;;;;;;17.33;16.02;;;15.80;53.60;;;;;;6286673;22;20053;-83
2023/02/26 11:53:54;;;;;;;18.67;17.27;;;15.90;53.30;;;;;;6286721;22;20412;-78
2023/02/26 11:56:37;;;;;;;19.98;18.58;;;16.00;53.30;;;;;;6286673;22;20308;-80
2023/02/26 11:59:23;;;;;;;20.45;18.95;;;16.10;53.20;;;;;;6286344;22;20019;-78
2023/02/26 12:01:51;;;;;;;17.10;15.90;;;16.10;53.20;;;;;;6276238;22;20315;-79
2023/02/26 12:04:23;;;;;;;17.75;16.27;;;16.20;52.70;;;;;;6275914;22;19995;-81
2023/02/26 12:06:53;;;;;;;17.58;16.38;;;16.20;53.40;;;;;;6276033;22;20496;-81
2023/02/26 12:09:20;;;;;;;15.93;14.57;;;16.20;52.90;;;;;;6275940;22;19991;-81
2023/02/26 12:12:15;;;;;;;15.50;14.25;;;16.20;52.20;;;;;;6286300;22;20042;-88
2023/02/26 12:15:00;;;;;;;13.77;12.68;;;16.30;52.70;;;;;;6141594;22;20002;-74
2023/02/26 12:17:42;;;;;;;12.40;11.40;;;16.30;52.40;;;;;;6276286;22;20063;-73
2023/02/26 12:20:18;;;;;;;11.80;10.90;;;16.40;52.10;;;;;;6276314;22;19992;-75
2023/02/26 12:23:03;;;;;;;10.55;9.75;;;16.40;52.10;;;;;;6276262;22;20008;-74
2023/02/26 12:26:03;;;;;;;9.73;8.90;;;16.50;51.70;;;;;;6275788;22;20065;-74
2023/02/26 12:29:01;;;;;;;9.40;8.70;;;16.60;51.50;;;;;;6275808;22;20395;-74
2023/02/26 12:31:58;;;;;;;7.85;7.25;;;16.70;51.20;;;;;;6275943;22;20000;-76
2023/02/26 12:34:32;;;;;;;8.45;7.40;;;16.90;50.70;;;;;;6275892;22;20045;-77
2023/02/26 12:37:29;;;;;;;7.10;6.53;;;17.00;50.40;;;;;;6276030;22;20457;-77
2023/02/26 12:40:33;;;;;;;7.55;6.82;;;17.00;50.50;;;;;;6275755;22;20000;-75
2023/02/26 12:43:09;;;;;;;6.28;5.70;;;17.00;51.00;;;;;;6286120;22;20431;-78
2023/02/26 12:45:48;;;;;;;6.32;5.90;;;17.10;50.90;;;;;;6275422;22;20578;-77
2023/02/26 12:48:47;;;;;;;5.45;4.95;;;17.20;51.00;;;;;;6275590;22;20423;-77
2023/02/26 12:51:53;;;;;;;6.18;4.47;;;17.20;50.80;;;;;;6276102;22;20055;-77
2023/02/26 12:54:48;;;;;;;4.72;4.38;;;17.30;50.20;;;;;;6276127;22;20326;-77
2023/02/26 12:57:27;;;;;;;4.25;3.95;;;17.40;49.80;;;;;;6275206;22;20388;-77
2023/02/26 12:59:59;;;;;;;3.47;3.28;;;17.40;49.40;;;;;;6276056;22;20004;-77
2023/02/26 13:02:56;;;;;;;3.17;2.92;;;17.50;49.40;;;;;;6275472;22;20007;-77
2023/02/26 13:05:52;;;;;;;2.80;2.60;;;17.60;49.40;;;;;;6275937;22;20012;-77
2023/02/26 13:08:24;;;;;;;2.65;1.98;;;17.70;48.80;;;;;;6285920;22;20025;-77